Time;durP1;ratioP1;P1;durP2;ratioP2;P2;SDS_P1;SDS_P2;PMS_P1;PMS_P2;Temp;Humidity;BMP_temperature;BMP_pressure;BME280_temperature;BME280_humidity;BME280_pressure;Samples;Min_cycle;Max_cycle;Signal;HPM_P1;HPM_P2
2023/04/13 00:01:24;;;;;;;1.20;0.50;;;15.40;72.40;;;;;;10269707;28;20485;-54
2023/04/13 00:06:24;;;;;;;1.05;0.65;;;15.40;72.20;;;;;;10270428;28;20098;-56
2023/04/13 00:11:26;;;;;;;2.03;0.50;;;15.30;72.10;;;;;;10286930;28;20101;-54
2023/04/13 00:16:30;;;;;;;2.15;0.82;;;15.40;71.90;;;;;;10286978;28;20723;-55
2023/04/13 00:21:32;;;;;;;1.30;0.70;;;15.30;71.50;;;;;;10285170;28;20470;-55
2023/04/13 00:26:33;;;;;;;3.33;0.70;;;15.30;71.60;;;;;;10280657;28;20030;-55
2023/04/13 00:31:34;;;;;;;1.73;0.70;;;15.30;71.40;;;;;;10286454;28;20419;-55
2023/04/13 00:36:34;;;;;;;1.80;0.60;;;15.30;71.40;;;;;;10284599;28;20023;-55
2023/04/13 00:41:35;;;;;;;1.73;0.73;;;15.20;70.90;;;;;;10268621;28;20131;-56
2023/04/13 00:46:35;;;;;;;0.70;0.40;;;15.20;71.20;;;;;;10285706;28;20592;-55
2023/04/13 00:51:37;;;;;;;0.82;0.63;;;15.20;70.70;;;;;;10285432;28;20041;-56
2023/04/13 00:56:42;;;;;;;1.27;0.80;;;15.20;70.70;;;;;;10268128;28;20033;-55
2023/04/13 01:01:45;;;;;;;2.67;0.93;;;15.20;70.80;;;;;;10285202;28;20031;-54
2023/04/13 01:07:03;;;;;;;1.33;0.73;;;15.20;70.70;;;;;;10284688;28;20027;-56
2023/04/13 01:12:16;;;;;;;2.30;0.75;;;15.20;70.70;;;;;;10285137;28;20061;-55
2023/04/13 01:17:24;;;;;;;3.90;0.60;;;15.20;70.70;;;;;;10267637;28;20085;-56
2023/04/13 01:22:29;;;;;;;0.77;0.40;;;15.10;70.60;;;;;;10284523;28;20021;-55
2023/04/13 01:27:59;;;;;;;3.45;0.95;;;15.10;70.60;;;;;;10267356;28;20027;-55
2023/04/13 01:33:04;;;;;;;3.03;0.60;;;15.10;70.50;;;;;;10284077;28;20029;-54
2023/04/13 01:38:06;;;;;;;1.77;0.60;;;15.10;70.60;;;;;;10266070;28;20042;-55
2023/04/13 01:43:07;;;;;;;1.65;0.70;;;15.10;70.50;;;;;;10266600;28;20115;-56
2023/04/13 01:48:28;;;;;;;1.23;0.50;;;15.10;70.50;;;;;;10284084;28;20162;-55
2023/04/13 01:54:10;;;;;;;1.73;0.47;;;15.10;70.50;;;;;;10282496;28;20029;-56
2023/04/13 01:59:11;;;;;;;1.77;0.38;;;15.10;70.50;;;;;;10189911;28;20125;-56
2023/04/13 02:04:12;;;;;;;1.75;0.60;;;15.10;70.50;;;;;;10283417;28;20027;-54
2023/04/13 02:09:13;;;;;;;0.75;0.47;;;15.00;70.40;;;;;;10283268;28;20025;-55
2023/04/13 02:14:15;;;;;;;1.42;0.47;;;15.00;70.40;;;;;;10265936;28;20598;-55
2023/04/13 02:19:16;;;;;;;1.25;0.50;;;15.00;70.40;;;;;;10283193;28;20065;-56
2023/04/13 02:24:16;;;;;;;0.45;0.38;;;15.00;70.40;;;;;;10283072;28;20031;-54
2023/04/13 02:29:17;;;;;;;1.73;0.57;;;15.00;70.40;;;;;;10282755;28;20535;-56
2023/04/13 02:34:18;;;;;;;1.35;0.35;;;15.00;70.30;;;;;;10282677;28;20102;-55
2023/04/13 02:39:19;;;;;;;0.88;0.30;;;15.00;70.30;;;;;;10265261;28;20437;-56
2023/04/13 02:44:20;;;;;;;0.80;0.50;;;15.00;70.30;;;;;;10288287;28;20039;-56
2023/04/13 02:49:21;;;;;;;0.90;0.40;;;15.00;70.30;;;;;;10272833;28;20106;-56
2023/04/13 02:54:23;;;;;;;1.08;0.40;;;15.00;70.30;;;;;;10290021;28;20098;-56
2023/04/13 02:59:24;;;;;;;1.30;0.80;;;15.00;70.40;;;;;;10289438;28;20119;-56
2023/04/13 03:04:25;;;;;;;1.15;0.50;;;14.90;70.40;;;;;;10289979;28;20491;-55
2023/04/13 03:09:25;;;;;;;1.23;0.30;;;15.00;70.50;;;;;;10289246;28;20023;-55
2023/04/13 03:14:28;;;;;;;1.10;0.30;;;14.90;70.20;;;;;;10289313;28;20088;-56
2023/04/13 03:19:30;;;;;;;1.23;0.40;;;14.90;70.20;;;;;;10288898;28;20034;-56
2023/04/13 03:24:31;;;;;;;1.25;0.60;;;14.90;70.10;;;;;;10289081;28;20034;-55
2023/04/13 03:29:31;;;;;;;0.77;0.47;;;14.90;70.20;;;;;;10288551;28;20097;-56
2023/04/13 03:34:32;;;;;;;1.02;0.47;;;14.90;70.20;;;;;;10287366;28;20581;-55
2023/04/13 03:39:33;;;;;;;0.70;0.30;;;15.00;70.30;;;;;;10271142;28;20035;-54
2023/04/13 03:44:34;;;;;;;0.38;0.38;;;15.30;69.50;;;;;;10287896;28;20051;-56
2023/04/13 03:49:34;;;;;;;0.98;0.50;;;15.50;68.60;;;;;;10287844;28;20101;-55
2023/04/13 03:54:35;;;;;;;1.15;0.40;;;15.80;67.80;;;;;;10287352;28;20043;-56
2023/04/13 03:59:36;;;;;;;0.73;0.68;;;15.90;67.20;;;;;;10286543;28;20606;-56
2023/04/13 04:04:36;;;;;;;0.93;0.20;;;16.10;66.50;;;;;;10286528;28;20449;-56
2023/04/13 04:09:38;;;;;;;0.60;0.30;;;16.40;65.90;;;;;;10287494;28;20058;-55
2023/04/13 04:14:38;;;;;;;0.38;0.25;;;16.60;65.30;;;;;;10287130;28;20067;-55
2023/04/13 04:19:39;;;;;;;0.60;0.35;;;16.70;65.50;;;;;;10285769;28;20060;-54
2023/04/13 04:24:43;;;;;;;1.15;0.40;;;16.80;64.70;;;;;;10285145;28;20026;-56
2023/04/13 04:29:48;;;;;;;3.13;0.50;;;16.80;64.80;;;;;;10284744;28;20073;-56
2023/04/13 04:34:51;;;;;;;0.93;0.30;;;16.70;64.90;;;;;;10284680;28;20019;-55
2023/04/13 04:39:52;;;;;;;0.65;0.20;;;16.60;65.30;;;;;;10266500;28;20038;-55
2023/04/13 04:44:55;;;;;;;0.50;0.32;;;16.50;65.60;;;;;;10282460;28;20102;-56
2023/04/13 04:49:56;;;;;;;0.80;0.30;;;16.40;65.90;;;;;;10284304;28;20026;-54
2023/04/13 04:54:57;;;;;;;3.92;0.30;;;16.30;66.40;;;;;;10284392;28;20019;-56
2023/04/13 04:59:58;;;;;;;5.95;0.47;;;16.50;66.00;;;;;;10283969;28;20113;-57
2023/04/13 05:04:58;;;;;;;4.85;0.45;;;16.60;66.20;;;;;;10266159;28;20022;-55
2023/04/13 05:09:59;;;;;;;3.63;0.60;;;16.60;66.70;;;;;;10283568;28;20524;-56
2023/04/13 05:15:00;;;;;;;2.67;0.60;;;16.60;67.10;;;;;;10282998;28;20121;-56
2023/04/13 05:20:05;;;;;;;5.78;0.60;;;16.70;67.90;;;;;;10283854;28;20027;-56
2023/04/13 05:25:06;;;;;;;1.33;0.40;;;16.60;68.30;;;;;;10283538;28;20038;-56
2023/04/13 05:30:08;;;;;;;2.45;0.45;;;16.50;68.30;;;;;;10282251;28;20027;-52
2023/04/13 05:35:09;;;;;;;5.45;0.60;;;16.50;68.80;;;;;;10281648;28;20081;-54
2023/04/13 05:40:13;;;;;;;5.70;0.57;;;16.40;69.10;;;;;;10281856;28;20070;-56
2023/04/13 05:45:15;;;;;;;6.18;0.70;;;16.30;69.30;;;;;;10280515;28;20038;-57
2023/04/13 05:50:16;;;;;;;5.80;0.70;;;16.30;69.40;;;;;;10263629;28;20030;-58
2023/04/13 05:55:18;;;;;;;4.50;0.80;;;16.20;69.60;;;;;;10280872;28;20030;-54
2023/04/13 06:00:20;;;;;;;6.70;2.03;;;16.30;69.90;;;;;;10281712;28;20027;-59
2023/04/13 06:05:21;;;;;;;8.80;1.70;;;16.30;69.80;;;;;;10279501;28;20034;-57
2023/04/13 06:10:21;;;;;;;5.93;1.05;;;16.20;69.50;;;;;;10279634;28;20061;-58
2023/04/13 06:15:22;;;;;;;9.70;1.50;;;16.10;70.10;;;;;;10283426;28;20027;-50
2023/04/13 06:20:23;;;;;;;10.15;1.17;;;16.10;69.30;;;;;;10289252;28;20031;-53
2023/04/13 06:25:24;;;;;;;4.68;0.70;;;16.00;69.00;;;;;;10288952;28;20495;-53
2023/04/13 06:30:25;;;;;;;4.43;0.77;;;16.00;69.00;;;;;;10283936;28;20177;-55
2023/04/13 06:35:25;;;;;;;5.20;0.90;;;15.90;69.40;;;;;;10280022;28;20082;-58
2023/04/13 06:40:27;;;;;;;7.50;1.40;;;15.90;69.80;;;;;;10267968;28;20293;-58
2023/04/13 06:45:29;;;;;;;2.67;1.58;;;16.00;69.30;;;;;;10284279;28;20784;-55
2023/04/13 06:50:30;;;;;;;3.42;0.80;;;16.00;69.00;;;;;;10288429;28;20434;-57
2023/04/13 06:55:31;;;;;;;2.25;0.60;;;16.00;69.30;;;;;;10288191;28;20045;-57
2023/04/13 07:00:31;;;;;;;2.42;0.80;;;16.00;69.40;;;;;;10292251;28;20078;-56
2023/04/13 07:05:32;;;;;;;4.40;0.90;;;16.00;69.50;;;;;;10293710;28;20041;-55
2023/04/13 07:10:36;;;;;;;3.05;0.60;;;15.90;69.60;;;;;;10292909;28;20481;-51
2023/04/13 07:15:37;;;;;;;7.10;1.15;;;15.90;69.40;;;;;;10286722;28;20142;-54
2023/04/13 07:20:38;;;;;;;5.57;1.30;;;15.90;68.80;;;;;;10287561;28;20058;-52
2023/04/13 07:25:39;;;;;;;4.35;1.52;;;15.90;68.60;;;;;;10270353;28;20499;-53
2023/04/13 07:30:44;;;;;;;2.72;0.90;;;16.00;68.20;;;;;;10269892;28;20027;-57
2023/04/13 07:35:45;;;;;;;1.67;0.60;;;16.00;68.00;;;;;;10268457;28;20382;-58
2023/04/13 07:40:46;;;;;;;2.03;0.50;;;16.00;68.10;;;;;;10285688;28;20119;-57
2023/04/13 07:45:46;;;;;;;1.80;0.50;;;16.00;67.80;;;;;;10268913;28;20077;-58
2023/04/13 07:50:47;;;;;;;2.35;0.60;;;16.10;67.70;;;;;;10270336;28;20483;-58
2023/04/13 07:55:48;;;;;;;2.17;0.50;;;16.00;67.80;;;;;;10270445;28;20142;-57
2023/04/13 08:00:48;;;;;;;2.05;0.70;;;16.00;67.70;;;;;;10287607;28;20066;-55
2023/04/13 08:05:49;;;;;;;1.58;0.80;;;16.10;67.50;;;;;;10287224;28;20129;-57
2023/04/13 08:10:50;;;;;;;3.50;0.50;;;16.10;67.70;;;;;;10287602;28;20433;-58
2023/04/13 08:15:51;;;;;;;3.30;0.50;;;16.00;67.70;;;;;;10287056;28;20098;-57
2023/04/13 08:20:55;;;;;;;2.67;0.60;;;16.00;67.90;;;;;;10286542;28;20086;-57
2023/04/13 08:25:55;;;;;;;6.50;1.00;;;15.90;67.90;;;;;;10285630;28;20023;-57
2023/04/13 08:30:56;;;;;;;2.25;0.50;;;15.90;68.10;;;;;;10267774;28;20051;-58
2023/04/13 08:35:57;;;;;;;3.72;1.25;;;15.90;67.80;;;;;;10285923;28;20065;-57
2023/04/13 08:40:58;;;;;;;1.65;0.60;;;16.00;67.60;;;;;;10267525;28;20181;-57
2023/04/13 08:45:58;;;;;;;4.35;1.05;;;16.00;67.70;;;;;;10267603;28;20046;-56
2023/04/13 08:51:03;;;;;;;2.97;1.10;;;16.00;67.70;;;;;;10285687;28;20027;-56
2023/04/13 08:56:09;;;;;;;2.60;0.70;;;16.10;67.40;;;;;;10268517;28;20138;-57
2023/04/13 09:01:12;;;;;;;2.22;0.77;;;16.10;67.30;;;;;;10268189;28;20073;-57
2023/04/13 09:06:14;;;;;;;1.45;0.82;;;16.10;67.50;;;;;;10267871;28;20073;-57
2023/04/13 09:11:15;;;;;;;1.10;0.60;;;16.00;67.60;;;;;;10267343;28;20019;-57
2023/04/13 09:16:17;;;;;;;3.90;0.70;;;16.00;67.70;;;;;;10267202;28;20054;-56
2023/04/13 09:21:18;;;;;;;2.10;0.50;;;15.90;67.80;;;;;;10284482;28;20080;-56
2023/04/13 09:26:19;;;;;;;1.40;0.47;;;15.90;68.00;;;;;;10284595;28;20019;-57
2023/04/13 09:31:20;;;;;;;2.60;0.60;;;15.90;68.00;;;;;;10283953;28;20089;-56
2023/04/13 09:36:21;;;;;;;4.03;1.38;;;15.90;67.70;;;;;;10266391;28;20007;-56
2023/04/13 09:41:31;;;;;;;1.98;0.50;;;16.00;67.70;;;;;;10265311;28;20038;-57
2023/04/13 09:46:32;;;;;;;2.03;0.52;;;15.90;67.80;;;;;;10282128;28;20603;-56
2023/04/13 09:51:38;;;;;;;1.42;0.50;;;15.90;67.90;;;;;;10252542;28;20118;-57
2023/04/13 09:56:46;;;;;;;3.85;0.55;;;15.90;68.00;;;;;;10283179;28;20027;-57
2023/04/13 10:01:48;;;;;;;3.07;1.00;;;16.00;67.70;;;;;;10267236;28;20678;-58
2023/04/13 10:06:49;;;;;;;3.90;0.70;;;16.00;67.50;;;;;;10265400;28;20749;-57
2023/04/13 10:11:50;;;;;;;2.60;1.02;;;16.10;67.50;;;;;;10282548;28;20062;-55
2023/04/13 10:17:31;;;;;;;1.75;0.80;;;16.00;68.00;;;;;;10280199;28;20351;-57
2023/04/13 10:22:32;;;;;;;2.58;1.08;;;15.90;67.90;;;;;;10235439;28;20062;-57
2023/04/13 10:27:35;;;;;;;1.98;0.80;;;15.90;67.80;;;;;;10262017;28;20077;-57
2023/04/13 10:32:36;;;;;;;2.10;0.98;;;15.90;68.30;;;;;;10280984;28;20019;-55
2023/04/13 10:37:38;;;;;;;2.70;1.58;;;15.80;68.70;;;;;;10279237;28;20054;-55
2023/04/13 10:42:46;;;;;;;3.05;0.93;;;15.80;68.30;;;;;;10263745;28;20058;-57
2023/04/13 10:47:47;;;;;;;1.40;0.63;;;15.90;68.10;;;;;;10280578;28;20051;-58
2023/04/13 10:53:09;;;;;;;5.38;0.80;;;15.80;68.80;;;;;;10269740;28;20027;-57
2023/04/13 10:58:16;;;;;;;4.72;0.82;;;15.80;68.50;;;;;;10285840;28;20034;-58
2023/04/13 11:03:17;;;;;;;4.90;0.88;;;15.80;68.80;;;;;;10275086;28;20528;-58
2023/04/13 11:08:19;;;;;;;2.20;0.90;;;15.70;68.70;;;;;;10272274;28;20109;-57
2023/04/13 11:13:21;;;;;;;2.72;1.13;;;15.70;68.70;;;;;;10283781;28;20423;-58
2023/04/13 11:18:26;;;;;;;2.50;1.23;;;15.70;68.80;;;;;;10271498;28;20038;-58
2023/04/13 11:23:27;;;;;;;1.52;0.68;;;15.70;69.10;;;;;;10288580;28;20018;-57
2023/04/13 11:28:40;;;;;;;3.75;1.35;;;15.80;68.90;;;;;;10287872;28;20039;-58
2023/04/13 11:33:43;;;;;;;2.47;0.80;;;15.80;68.80;;;;;;10287785;28;20062;-57
2023/04/13 11:38:46;;;;;;;3.00;1.00;;;15.80;68.80;;;;;;10286564;28;20571;-57
2023/04/13 11:43:47;;;;;;;4.18;1.23;;;15.80;68.80;;;;;;10270546;28;20039;-57
2023/04/13 11:48:48;;;;;;;1.25;0.70;;;15.80;68.70;;;;;;10287481;28;20029;-57
2023/04/13 11:53:50;;;;;;;2.58;1.45;;;15.80;68.80;;;;;;10270619;28;20026;-57
2023/04/13 11:58:52;;;;;;;1.38;0.60;;;15.80;68.60;;;;;;10269401;28;20034;-58
2023/04/13 12:03:52;;;;;;;1.85;0.80;;;15.80;68.80;;;;;;10275579;28;20030;-57
2023/04/13 12:09:00;;;;;;;2.17;0.60;;;15.70;68.70;;;;;;10286732;28;20051;-58
2023/04/13 12:14:01;;;;;;;2.78;1.08;;;15.70;68.70;;;;;;10286335;28;20031;-57
2023/04/13 12:19:08;;;;;;;3.55;1.55;;;15.70;68.70;;;;;;10285963;28;20548;-57
2023/04/13 12:24:09;;;;;;;3.58;1.02;;;15.70;68.70;;;;;;10268815;28;20037;-57
2023/04/13 12:29:10;;;;;;;3.45;1.10;;;15.70;68.70;;;;;;10289597;28;20098;-57
2023/04/13 12:34:10;;;;;;;1.52;0.52;;;15.70;68.80;;;;;;10271229;28;20098;-57
2023/04/13 12:39:11;;;;;;;2.80;1.00;;;15.70;68.70;;;;;;10268548;28;20170;-57
2023/04/13 12:44:13;;;;;;;3.50;1.65;;;15.70;68.60;;;;;;10285978;28;20098;-57
2023/04/13 12:49:14;;;;;;;4.20;1.67;;;15.70;68.70;;;;;;10268321;28;20075;-57
2023/04/13 12:54:16;;;;;;;2.08;0.95;;;15.60;68.70;;;;;;10285110;28;20125;-58
2023/04/13 12:59:20;;;;;;;2.83;1.02;;;15.60;68.70;;;;;;10285392;28;20363;-58
2023/04/13 13:04:21;;;;;;;1.73;0.80;;;15.60;68.70;;;;;;10284640;28;20097;-57
2023/04/13 13:09:21;;;;;;;3.83;1.30;;;15.70;68.80;;;;;;10284402;28;20077;-57
2023/04/13 13:14:22;;;;;;;3.70;1.17;;;15.70;68.70;;;;;;10284587;28;20051;-57
2023/04/13 13:19:23;;;;;;;2.85;1.02;;;15.70;68.50;;;;;;10284388;28;20030;-57
2023/04/13 13:24:24;;;;;;;2.28;1.17;;;15.80;68.70;;;;;;10283997;28;20119;-58
2023/04/13 13:29:26;;;;;;;3.53;0.85;;;15.80;68.50;;;;;;10283982;28;20812;-57
2023/04/13 13:34:27;;;;;;;3.47;1.35;;;15.90;68.30;;;;;;10266207;28;20045;-57
2023/04/13 13:39:28;;;;;;;2.65;1.33;;;15.90;68.00;;;;;;10280502;28;20041;-57
2023/04/13 13:44:29;;;;;;;1.73;0.68;;;15.90;68.00;;;;;;10282298;28;20498;-58
2023/04/13 13:49:30;;;;;;;2.30;0.90;;;15.90;68.10;;;;;;10283533;28;20927;-57
2023/04/13 13:54:30;;;;;;;3.67;1.05;;;16.00;68.10;;;;;;10283255;28;20050;-57
2023/04/13 13:59:31;;;;;;;4.97;1.92;;;15.90;68.00;;;;;;10283451;28;20570;-57
2023/04/13 14:04:31;;;;;;;2.40;1.02;;;15.90;67.90;;;;;;10283746;28;20170;-57
2023/04/13 14:09:33;;;;;;;1.70;0.70;;;15.90;67.90;;;;;;10283493;28;20041;-57
2023/04/13 14:14:34;;;;;;;4.00;1.10;;;15.90;68.40;;;;;;10283757;28;20027;-56
2023/04/13 14:19:35;;;;;;;2.33;1.15;;;15.90;67.90;;;;;;10283243;28;20030;-57
2023/04/13 14:24:35;;;;;;;3.35;1.25;;;15.90;67.80;;;;;;10282662;28;20344;-58
2023/04/13 14:29:36;;;;;;;1.63;0.70;;;15.90;67.90;;;;;;10281056;28;20558;-57
2023/04/13 14:34:37;;;;;;;2.90;0.82;;;15.90;67.80;;;;;;10282653;28;20094;-58
2023/04/13 14:39:38;;;;;;;3.13;0.90;;;16.00;67.70;;;;;;10270297;28;20027;-57
2023/04/13 14:44:38;;;;;;;1.92;0.65;;;16.00;67.70;;;;;;10272836;28;20132;-58
2023/04/13 14:49:40;;;;;;;2.90;0.93;;;16.00;67.60;;;;;;10272127;28;20125;-57
2023/04/13 14:54:41;;;;;;;6.63;1.30;;;16.10;67.40;;;;;;10290414;28;20061;-58
2023/04/13 14:59:43;;;;;;;2.88;0.80;;;16.10;67.30;;;;;;10289507;28;20679;-57
2023/04/13 15:04:44;;;;;;;2.53;0.85;;;16.10;67.20;;;;;;10272513;28;20015;-57
2023/04/13 15:09:44;;;;;;;2.38;0.80;;;16.10;67.00;;;;;;10288761;28;20015;-57
2023/04/13 15:14:45;;;;;;;2.13;1.00;;;16.10;67.10;;;;;;10286895;28;20050;-57
2023/04/13 15:19:46;;;;;;;1.55;0.95;;;16.10;67.20;;;;;;10269078;28;20026;-57
2023/04/13 15:24:47;;;;;;;2.90;1.10;;;16.10;67.10;;;;;;10268938;28;20026;-56
2023/04/13 15:29:55;;;;;;;5.07;0.60;;;16.00;67.10;;;;;;10286546;28;20102;-57
2023/04/13 15:34:56;;;;;;;5.10;1.17;;;16.10;66.70;;;;;;10270598;28;20034;-57
2023/04/13 15:39:57;;;;;;;3.30;1.05;;;16.10;66.60;;;;;;10287202;28;20085;-56
2023/04/13 15:44:57;;;;;;;2.92;1.08;;;16.20;66.60;;;;;;10288010;28;20680;-58
2023/04/13 15:49:58;;;;;;;3.40;0.73;;;16.10;66.60;;;;;;10287854;28;20050;-56
2023/04/13 15:54:59;;;;;;;7.75;1.90;;;16.20;66.40;;;;;;10286864;28;20066;-54
2023/04/13 15:59:59;;;;;;;13.20;4.32;;;16.20;66.00;;;;;;10287796;28;20070;-55
2023/04/13 16:05:01;;;;;;;14.70;4.35;;;16.20;67.50;;;;;;10270661;28;20378;-57
2023/04/13 16:10:01;;;;;;;7.00;2.70;;;16.40;67.60;;;;;;10287925;28;20049;-59
2023/04/13 16:15:04;;;;;;;17.95;3.50;;;16.60;66.70;;;;;;10287595;28;20033;-58
2023/04/13 16:25:14;;;;;;;15.00;3.22;;;16.80;67.60;;;;;;10287090;28;20027;-58
2023/04/13 16:30:18;;;;;;;9.63;3.33;;;16.80;68.00;;;;;;10269810;28;20022;-58
2023/04/13 16:35:19;;;;;;;13.40;3.75;;;16.70;67.10;;;;;;10269422;28;20045;-57
2023/04/13 16:40:20;;;;;;;8.98;3.28;;;16.70;67.10;;;;;;10269174;28;20414;-59
2023/04/13 16:45:23;;;;;;;20.00;4.57;;;16.80;67.40;;;;;;10268929;28;20049;-56
2023/04/13 16:50:27;;;;;;;15.07;3.30;;;16.70;67.70;;;;;;10286129;28;20510;-59
2023/04/13 16:55:30;;;;;;;15.35;3.47;;;16.60;67.30;;;;;;10266237;28;20030;-57
2023/04/13 17:00:30;;;;;;;8.90;2.53;;;16.60;67.10;;;;;;10283933;28;20035;-58
2023/04/13 17:05:31;;;;;;;13.35;4.50;;;16.60;68.10;;;;;;10284088;28;20561;-57
2023/04/13 17:10:33;;;;;;;10.63;2.75;;;16.60;65.50;;;;;;10285579;28;20486;-59
2023/04/13 17:15:33;;;;;;;9.25;2.53;;;16.50;66.90;;;;;;10265224;28;20023;-57
2023/04/13 17:20:35;;;;;;;9.77;3.00;;;16.40;67.10;;;;;;10281111;28;20165;-57
2023/04/13 17:25:40;;;;;;;9.93;2.08;;;16.30;68.30;;;;;;10266994;28;20023;-55
2023/04/13 17:30:40;;;;;;;14.52;3.22;;;16.30;66.90;;;;;;10284116;28;20023;-57
2023/04/13 17:35:41;;;;;;;10.45;2.25;;;16.20;67.80;;;;;;10283066;28;20619;-58
2023/04/13 17:40:42;;;;;;;15.80;3.08;;;16.20;68.30;;;;;;10265865;28;20027;-58
2023/04/13 17:45:42;;;;;;;13.45;3.90;;;16.20;68.50;;;;;;10266516;28;20189;-59
2023/04/13 17:50:43;;;;;;;11.15;2.67;;;16.00;68.10;;;;;;10284017;28;20644;-59
2023/04/13 17:55:44;;;;;;;8.77;2.00;;;16.00;68.00;;;;;;10283714;28;20058;-58
2023/04/13 18:00:45;;;;;;;14.07;2.75;;;16.00;68.00;;;;;;10283959;28;20078;-57
2023/04/13 18:05:45;;;;;;;7.88;2.20;;;16.00;67.90;;;;;;10275710;28;20110;-57
2023/04/13 18:10:46;;;;;;;8.02;2.42;;;16.00;68.00;;;;;;10277057;28;20026;-58
2023/04/13 18:15:49;;;;;;;7.85;2.45;;;15.90;67.90;;;;;;10276125;28;20102;-57
2023/04/13 18:20:52;;;;;;;5.03;1.80;;;15.90;68.20;;;;;;10297393;28;20034;-57
2023/04/13 18:25:53;;;;;;;8.18;2.45;;;15.90;68.40;;;;;;10279930;28;20019;-57
2023/04/13 18:30:59;;;;;;;10.27;3.42;;;15.80;68.40;;;;;;10273966;28;20554;-57
2023/04/13 18:35:59;;;;;;;4.32;1.65;;;15.80;68.50;;;;;;10273988;28;20086;-57
2023/04/13 18:41:00;;;;;;;7.68;2.97;;;15.80;68.70;;;;;;10273348;28;20351;-57
2023/04/13 18:46:01;;;;;;;9.32;1.83;;;15.80;68.80;;;;;;10290057;28;20039;-56
2023/04/13 18:51:02;;;;;;;5.07;1.92;;;15.80;68.60;;;;;;10288784;28;20151;-57
2023/04/13 18:56:02;;;;;;;8.48;1.95;;;15.80;68.70;;;;;;10288626;28;20023;-58
2023/04/13 19:01:12;;;;;;;9.63;1.75;;;15.80;68.70;;;;;;10272208;28;20035;-58
2023/04/13 19:06:12;;;;;;;7.55;1.63;;;15.70;68.60;;;;;;10290071;28;20023;-58
2023/04/13 19:11:14;;;;;;;4.80;2.00;;;15.80;68.60;;;;;;10272672;28;20542;-58
2023/04/13 19:16:15;;;;;;;6.00;2.20;;;15.80;68.50;;;;;;10289368;28;20031;-58
2023/04/13 19:21:17;;;;;;;5.78;2.08;;;15.80;68.60;;;;;;10288608;28;20117;-55
2023/04/13 19:26:18;;;;;;;8.32;2.42;;;15.80;68.40;;;;;;10288257;28;20054;-57
2023/04/13 19:31:18;;;;;;;4.70;1.23;;;15.80;68.30;;;;;;10287751;28;20033;-57
2023/04/13 19:36:19;;;;;;;5.05;1.77;;;15.80;68.40;;;;;;10288708;28;20149;-57
2023/04/13 19:41:21;;;;;;;5.30;1.63;;;15.70;68.50;;;;;;10270414;28;20027;-57
2023/04/13 19:46:22;;;;;;;3.47;1.10;;;15.70;68.60;;;;;;10271653;28;20066;-58
2023/04/13 19:51:25;;;;;;;4.35;1.70;;;15.70;69.20;;;;;;10288356;28;20109;-58
2023/04/13 19:56:29;;;;;;;5.18;2.03;;;15.60;68.70;;;;;;10286576;28;20027;-58
2023/04/13 20:01:31;;;;;;;5.93;2.33;;;15.60;68.70;;;;;;10283677;28;20563;-57
2023/04/13 20:06:32;;;;;;;5.50;2.05;;;15.60;68.70;;;;;;10279144;28;20031;-57
2023/04/13 20:11:34;;;;;;;6.35;2.53;;;15.60;68.60;;;;;;10287056;28;20034;-56
2023/04/13 20:16:35;;;;;;;10.02;1.98;;;15.60;68.20;;;;;;10287243;28;20046;-57
2023/04/13 20:21:36;;;;;;;4.70;1.60;;;15.50;68.00;;;;;;10285695;28;20033;-58
2023/04/13 20:26:38;;;;;;;4.35;1.67;;;15.50;68.00;;;;;;10284611;28;20077;-58
2023/04/13 20:31:39;;;;;;;4.75;2.00;;;15.50;68.10;;;;;;10285710;28;20065;-58
2023/04/13 20:36:40;;;;;;;3.45;1.10;;;15.50;68.00;;;;;;10285226;28;20023;-57
2023/04/13 20:41:40;;;;;;;4.88;1.38;;;15.50;68.10;;;;;;10285950;28;20121;-58
2023/04/13 20:46:48;;;;;;;3.72;1.60;;;15.50;68.20;;;;;;10244167;29;20119;-58
2023/04/13 20:51:56;;;;;;;4.50;1.40;;;15.50;68.10;;;;;;10245336;28;20023;-57
2023/04/13 20:56:57;;;;;;;7.30;1.65;;;15.40;68.00;;;;;;10244863;29;20051;-56
2023/04/13 21:01:58;;;;;;;3.40;1.60;;;15.50;68.10;;;;;;10244544;29;20102;-58
2023/04/13 21:07:01;;;;;;;3.58;1.23;;;15.40;68.00;;;;;;10245765;29;20023;-57
2023/04/13 21:12:02;;;;;;;6.70;2.28;;;15.40;68.00;;;;;;10245508;28;20042;-57
2023/04/13 21:17:02;;;;;;;3.58;1.17;;;15.40;68.10;;;;;;10245490;29;20583;-57
2023/04/13 21:22:03;;;;;;;4.50;1.20;;;15.40;68.10;;;;;;10244319;29;20031;-57
2023/04/13 21:27:04;;;;;;;2.50;1.00;;;15.40;68.00;;;;;;10245061;29;20453;-58
2023/04/13 21:32:05;;;;;;;4.72;1.17;;;15.40;68.00;;;;;;10244917;29;20047;-57
2023/04/13 21:37:06;;;;;;;5.03;1.20;;;15.40;68.00;;;;;;10244690;29;20070;-58
2023/04/13 21:42:07;;;;;;;8.77;1.42;;;15.40;68.00;;;;;;10244808;29;20563;-57
2023/04/13 21:47:08;;;;;;;2.95;1.10;;;15.40;68.00;;;;;;10273716;28;20126;-57
2023/04/13 21:52:09;;;;;;;2.55;1.20;;;15.30;68.40;;;;;;10266858;28;20022;-57
2023/04/13 21:57:10;;;;;;;4.57;1.27;;;15.40;67.90;;;;;;10282654;28;20039;-57
2023/04/13 22:02:11;;;;;;;2.97;1.55;;;15.30;67.80;;;;;;10271069;28;20490;-57
2023/04/13 22:07:11;;;;;;;1.95;1.02;;;15.30;67.70;;;;;;10284003;28;20110;-56
2023/04/13 22:12:13;;;;;;;2.55;1.17;;;15.30;67.70;;;;;;10266504;28;20053;-57
2023/04/13 22:17:13;;;;;;;2.97;1.20;;;15.30;67.70;;;;;;10283627;28;20102;-57
2023/04/13 22:22:14;;;;;;;2.55;1.52;;;15.30;67.60;;;;;;10283327;28;20031;-56
2023/04/13 22:27:15;;;;;;;2.38;1.45;;;15.30;67.60;;;;;;10283505;28;20502;-57
2023/04/13 22:32:15;;;;;;;4.15;1.25;;;15.30;67.60;;;;;;10283349;28;20157;-57
2023/04/13 22:37:16;;;;;;;2.83;1.48;;;15.30;67.50;;;;;;10283600;28;20598;-57
2023/04/13 22:42:17;;;;;;;3.78;0.88;;;15.30;67.50;;;;;;10265747;28;20039;-58
2023/04/13 22:47:17;;;;;;;2.85;1.20;;;15.20;67.50;;;;;;10225742;29;20130;-57
2023/04/13 22:52:18;;;;;;;3.72;1.58;;;15.20;67.50;;;;;;10243030;29;20111;-58
2023/04/13 22:57:19;;;;;;;1.10;0.90;;;15.20;67.40;;;;;;10241944;28;20015;-57
2023/04/13 23:02:20;;;;;;;3.95;1.17;;;15.20;67.50;;;;;;10250009;28;20035;-58
2023/04/13 23:07:20;;;;;;;3.97;1.60;;;15.20;67.50;;;;;;10248961;28;20513;-57
2023/04/13 23:12:21;;;;;;;3.50;1.35;;;15.20;67.50;;;;;;10250168;29;20055;-57
2023/04/13 23:17:22;;;;;;;2.53;0.98;;;15.20;67.30;;;;;;10248452;29;20031;-58
2023/04/13 23:22:23;;;;;;;1.55;0.88;;;15.20;67.30;;;;;;10249369;29;20078;-56
2023/04/13 23:27:24;;;;;;;3.22;0.95;;;15.10;67.20;;;;;;10249445;29;20012;-56
2023/04/13 23:32:25;;;;;;;2.63;1.00;;;15.10;67.20;;;;;;10264124;28;20019;-57
2023/04/13 23:37:26;;;;;;;4.65;1.52;;;15.10;67.20;;;;;;10249055;29;20047;-57
2023/04/13 23:42:26;;;;;;;2.30;1.38;;;15.10;67.10;;;;;;10248760;29;20592;-57
2023/04/13 23:47:27;;;;;;;2.28;1.00;;;15.10;67.00;;;;;;10281133;28;20505;-57
2023/04/13 23:52:28;;;;;;;2.03;0.80;;;15.10;67.00;;;;;;10288510;28;20027;-58
2023/04/13 23:57:37;;;;;;;1.48;0.82;;;15.10;66.90;;;;;;10288262;28;20419;-58
